Kettle Falls, Washington
Current Conditions -  °F | °C
As of 8:00 PM on Friday 24 Oct 2014 (Local Time) from CYCG Reporting Station
Overcast Overcast  
Wind Chill: 45°   Ceiling: 17000
Heat Index: 45°   Visibility: 15mi
Dew Point: 41°   Wind: 0mph
Humidity: 87%   Direction: NA
Pressure: 30.06"   Gusts: NA
Location:  48.61°N, 118.06°W
Report Text: CYCG 250300Z 00000KT 15SM FEW065 OVC170 07/05 A3006 RMK SC2AC6 SLP192
Loading
Personal Weather Stations






























Interactive Weather Map New forecast layout! Learn more

10-Day Weather Forecast

Advertisements
Track Severe Weather on mobile